Time;durP1;ratioP1;P1;durP2;ratioP2;P2;SDS_P1;SDS_P2;PMS_P1;PMS_P2;Temp;Humidity;BMP_temperature;BMP_pressure;BME280_temperature;BME280_humidity;BME280_pressure;Samples;Min_cycle;Max_cycle;Signal;HPM_P1;HPM_P2
2022/08/09 00:00:23;;;;;;;;;6.50;6.50;;;;;24.33;39.57;101732.38;4882279;29;46408;-52
2022/08/09 00:02:49;;;;;;;;;9.00;9.00;;;;;24.20;39.84;101710.50;4882647;29;45408;-57
2022/08/09 00:05:14;;;;;;;;;6.00;6.00;;;;;24.27;40.15;101733.50;4881906;29;45447;-54
2022/08/09 00:07:42;;;;;;;;;9.50;7.75;;;;;24.20;39.67;101714.16;4882712;29;45461;-55
2022/08/09 00:10:08;;;;;;;;;8.40;8.40;;;;;24.28;39.76;101734.34;4881451;29;46349;-53
2022/08/09 00:12:33;;;;;;;;;7.75;7.75;;;;;24.14;40.05;101734.06;4849761;29;45336;-56
2022/08/09 00:14:59;;;;;;;;;8.50;7.75;;;;;24.12;40.47;101731.53;4882356;29;45310;-58
2022/08/09 00:17:24;;;;;;;;;7.50;6.25;;;;;24.06;40.44;101735.44;4882561;29;45353;-53
2022/08/09 00:19:50;;;;;;;;;12.25;9.00;;;;;24.11;40.35;101726.22;4882185;29;46895;-51
2022/08/09 00:22:15;;;;;;;;;9.00;8.50;;;;;24.11;40.38;101731.81;4881715;29;45305;-52
2022/08/09 00:24:41;;;;;;;;;7.25;7.25;;;;;24.09;40.65;101726.50;4882094;29;45324;-54
2022/08/09 00:27:06;;;;;;;;;11.25;10.25;;;;;24.08;40.69;101713.59;4882645;29;45320;-55
2022/08/09 00:29:32;;;;;;;;;7.00;7.00;;;;;23.86;41.09;101703.47;4881902;29;45602;-55
2022/08/09 00:31:57;;;;;;;;;8.50;7.50;;;;;23.92;41.35;101713.56;4864810;29;45631;-54
2022/08/09 00:34:23;;;;;;;;;9.00;9.00;;;;;23.96;41.15;101719.47;4863426;28;45493;-56
2022/08/09 00:36:48;;;;;;;;;9.75;8.00;;;;;23.98;41.04;101713.56;4870020;29;45337;-54
2022/08/09 00:39:14;;;;;;;;;12.00;8.00;;;;;23.93;41.35;101715.25;4863643;29;45818;-52
2022/08/09 00:41:39;;;;;;;;;9.75;7.00;;;;;23.75;40.81;101685.78;4881740;29;45334;-56
2022/08/09 00:44:05;;;;;;;;;9.25;9.25;;;;;23.90;41.01;101718.59;4881849;29;45400;-56
2022/08/09 00:46:30;;;;;;;;;9.50;9.00;;;;;23.90;41.29;101713.00;4865555;29;45330;-54
2022/08/09 00:48:56;;;;;;;;;9.25;8.25;;;;;23.86;40.97;101705.44;4881512;29;45845;-54
2022/08/09 00:51:21;;;;;;;;;7.00;7.00;;;;;23.86;41.27;101706.28;4881951;29;45242;-52
2022/08/09 00:53:47;;;;;;;;;7.75;5.75;;;;;23.61;41.42;101670.66;4864943;29;45479;-52
2022/08/09 00:56:13;;;;;;;;;7.25;6.25;;;;;23.48;41.50;101652.44;4849698;29;45263;-53
2022/08/09 00:58:38;;;;;;;;;5.80;5.60;;;;;23.76;41.09;101712.72;4881584;29;46783;-57
2022/08/09 01:01:21;;;;;;;;;6.00;6.00;;;;;23.61;41.41;101679.06;4849398;29;45378;-53
2022/08/09 01:04:19;;;;;;;;;5.60;5.60;;;;;23.73;41.48;101715.25;4864636;29;45434;-56
2022/08/09 01:06:57;;;;;;;;;9.00;7.00;;;;;23.53;41.63;101689.69;4833534;29;45668;-54
2022/08/09 01:09:32;;;;;;;;;6.00;6.00;;;;;23.67;42.15;101714.38;4864521;29;46528;-52
2022/08/09 01:12:03;;;;;;;;;5.00;5.00;;;;;23.66;42.21;101712.69;4865199;29;45484;-51
2022/08/09 01:14:47;;;;;;;;;6.80;5.00;;;;;23.44;42.42;101693.31;4849624;29;45261;-54
2022/08/09 01:17:29;;;;;;;;;5.00;5.00;;;;;23.61;42.31;101709.88;4881486;29;45279;-56
2022/08/09 01:20:07;;;;;;;;;4.40;4.40;;;;;23.47;42.32;101709.59;4849176;29;45699;-55
2022/08/09 01:22:38;;;;;;;;;6.40;5.40;;;;;23.54;42.60;101707.34;4880297;29;45347;-53
2022/08/09 01:25:26;;;;;;;;;4.60;4.60;;;;;23.49;42.52;101712.94;4881121;29;45471;-53
2022/08/09 01:27:52;;;;;;;;;4.40;4.40;;;;;23.39;42.73;101711.81;4881457;29;45312;-56
2022/08/09 01:30:18;;;;;;;;;6.60;6.60;;;;;22.87;43.08;101644.41;4848774;29;46364;-54
2022/08/09 01:32:45;;;;;;;;;4.40;4.40;;;;;23.31;42.98;101712.31;4848626;29;45243;-53
2022/08/09 01:35:34;;;;;;;;;4.80;4.80;;;;;23.21;43.36;101720.66;4864133;29;45414;-54
2022/08/09 01:38:03;;;;;;;;;4.00;4.00;;;;;23.03;43.68;101711.63;4849532;29;45676;-52
2022/08/09 01:40:29;;;;;;;;;4.60;4.00;;;;;22.98;43.88;101703.19;4880399;29;46992;-55
2022/08/09 01:42:54;;;;;;;;;7.50;7.50;;;;;22.94;44.09;101710.47;4848491;29;45228;-53
2022/08/09 01:45:20;;;;;;;;;5.00;5.00;;;;;22.93;44.22;101694.81;4864459;29;45846;-55
2022/08/09 01:47:45;;;;;;;;;5.75;5.75;;;;;22.97;44.28;101710.78;4848630;29;45607;-54
2022/08/09 01:50:11;;;;;;;;;5.25;5.25;;;;;22.93;44.58;101706.81;4863917;29;45979;-55
2022/08/09 01:52:37;;;;;;;;;4.00;4.00;;;;;22.79;44.23;101674.88;4848433;29;45366;-51
2022/08/09 01:55:02;;;;;;;;;5.00;5.00;;;;;23.03;43.90;101708.84;4848529;29;45394;-53
2022/08/09 01:57:38;;;;;;;;;6.25;5.00;;;;;23.04;44.05;101698.50;4864141;29;45418;-56
2022/08/09 02:00:08;;;;;;;;;5.40;5.20;;;;;23.13;44.16;101706.09;4865231;29;46844;-57
2022/08/09 02:02:35;;;;;;;;;4.40;4.40;;;;;22.97;44.10;101681.94;4880514;29;45268;-56
2022/08/09 02:05:03;;;;;;;;;7.00;7.00;;;;;22.86;44.86;101687.50;4863923;29;45456;-53
2022/08/09 02:07:28;;;;;;;;;4.40;4.40;;;;;22.81;44.61;101703.41;4839582;28;45447;-56
2022/08/09 02:10:06;;;;;;;;;7.00;6.00;;;;;22.80;44.42;101679.34;4862521;29;45557;-56
2022/08/09 02:12:33;;;;;;;;;5.00;5.00;;;;;22.86;44.69;101695.03;4880206;29;45750;-55
2022/08/09 02:14:58;;;;;;;;;6.60;5.20;;;;;22.88;44.72;101702.06;4848718;29;45408;-53
2022/08/09 02:17:26;;;;;;;;;5.75;5.25;;;;;22.82;44.93;101699.50;4863633;29;45359;-57
2022/08/09 02:19:52;;;;;;;;;6.00;6.00;;;;;22.85;44.60;101708.19;4880170;29;45580;-56
2022/08/09 02:22:28;;;;;;;;;5.25;5.25;;;;;22.84;44.88;101709.28;4863308;29;45397;-55
2022/08/09 02:24:56;;;;;;;;;7.00;4.40;;;;;22.79;44.89;101700.03;4879204;29;45342;-55
2022/08/09 02:27:21;;;;;;;;;6.40;6.40;;;;;22.77;44.86;101700.31;4863542;29;45465;-54
2022/08/09 02:29:49;;;;;;;;;5.00;5.00;;;;;22.67;45.49;101705.88;4847271;29;46748;-54
2022/08/09 02:32:15;;;;;;;;;5.60;5.60;;;;;22.48;45.10;101659.56;4847842;29;45904;-56
2022/08/09 02:34:41;;;;;;;;;4.40;4.40;;;;;22.66;45.39;101701.34;4866679;29;45486;-56
2022/08/09 02:37:13;;;;;;;;;5.50;5.50;;;;;22.70;45.28;101702.50;4866684;29;45552;-56
2022/08/09 02:39:42;;;;;;;;;6.80;6.80;;;;;22.48;45.96;101686.69;4866569;29;45457;-53
2022/08/09 02:42:11;;;;;;;;;4.00;4.00;;;;;22.39;45.85;101682.69;4850758;29;45494;-55
2022/08/09 02:44:40;;;;;;;;;6.00;6.00;;;;;22.52;45.91;101701.00;4851322;29;45453;-57
2022/08/09 02:47:11;;;;;;;;;6.80;6.20;;;;;22.54;45.41;101699.63;4866524;29;45428;-57
2022/08/09 02:50:16;;;;;;;;;5.20;5.20;;;;;22.58;45.62;101697.13;4850744;29;45510;-53
2022/08/09 02:52:58;;;;;;;;;5.00;5.00;;;;;22.43;45.91;101661.50;4828467;29;45418;-53
2022/08/09 02:55:24;;;;;;;;;5.60;5.60;;;;;22.47;45.60;101677.44;4883376;29;45303;-57
2022/08/09 02:57:50;;;;;;;;;7.60;5.80;;;;;22.43;45.83;101673.53;4850866;29;45450;-57
2022/08/09 03:00:16;;;;;;;;;6.00;5.25;;;;;22.45;46.14;101695.59;4866275;29;45397;-56
2022/08/09 03:02:43;;;;;;;;;8.00;5.25;;;;;22.11;46.19;101640.03;4865762;29;45427;-52
2022/08/09 03:05:11;;;;;;;;;5.60;5.40;;;;;22.40;46.09;101682.44;4850552;29;45298;-55
2022/08/09 03:07:36;;;;;;;;;6.20;6.20;;;;;22.37;46.17;101687.72;4851409;29;45405;-51
2022/08/09 03:10:02;;;;;;;;;7.75;7.75;;;;;22.36;46.06;101694.44;4865795;29;46179;-55
2022/08/09 03:12:28;;;;;;;;;5.80;5.80;;;;;22.10;46.38;101649.53;4850377;29;45460;-63
2022/08/09 03:14:53;;;;;;;;;6.50;6.50;;;;;22.29;46.42;101695.50;4850929;29;45412;-53
2022/08/09 03:17:19;;;;;;;;;7.00;7.00;;;;;22.20;46.58;101692.38;4866574;29;45540;-56
2022/08/09 03:19:45;;;;;;;;;5.00;5.00;;;;;21.89;46.61;101641.81;4850367;29;45610;-59
2022/08/09 03:22:10;;;;;;;;;5.75;5.75;;;;;22.09;46.73;101667.41;4865856;29;45310;-52
2022/08/09 03:24:36;;;;;;;;;5.25;4.50;;;;;22.19;46.68;101693.47;4815070;29;45497;-53
2022/08/09 03:27:03;;;;;;;;;6.00;6.00;;;;;21.99;47.33;101684.94;4883179;29;45485;-56
2022/08/09 03:29:28;;;;;;;;;4.20;4.20;;;;;21.92;47.33;101699.97;4849973;29;45697;-56
2022/08/09 03:31:53;;;;;;;;;6.00;6.00;;;;;21.80;47.24;101668.56;4865663;29;45401;-58
2022/08/09 03:34:19;;;;;;;;;5.00;5.00;;;;;21.95;47.46;101709.78;4866114;29;45426;-55
2022/08/09 03:36:45;;;;;;;;;4.00;4.00;;;;;21.84;47.43;101692.09;4866129;29;45485;-57
2022/08/09 03:39:10;;;;;;;;;7.25;6.00;;;;;21.90;47.38;101702.19;4865785;29;45510;-57
2022/08/09 03:41:36;;;;;;;;;4.50;4.50;;;;;21.74;47.60;101673.28;4882640;29;45324;-56
2022/08/09 03:44:01;;;;;;;;;6.25;5.75;;;;;21.75;47.32;101676.91;4882072;29;45358;-54
2022/08/09 03:46:27;;;;;;;;;8.75;7.25;;;;;21.97;47.48;101704.75;4865826;29;45392;-55
2022/08/09 03:48:55;;;;;;;;;6.50;5.50;;;;;21.92;47.49;101699.97;4882640;29;46816;-56
2022/08/09 03:51:21;;;;;;;;;7.20;6.80;;;;;21.79;47.40;101670.50;4865926;29;45512;-54
2022/08/09 03:53:47;;;;;;;;;6.25;6.25;;;;;21.88;47.48;101684.84;4882111;29;45494;-55
2022/08/09 03:56:12;;;;;;;;;5.75;5.75;;;;;21.96;47.77;101691.91;4850406;29;45318;-56
2022/08/09 03:58:38;;;;;;;;;7.25;7.25;;;;;21.89;47.41;101691.28;4865358;29;46912;-56
2022/08/09 04:01:03;;;;;;;;;5.75;5.75;;;;;21.92;47.49;101693.53;4849939;29;45263;-57
2022/08/09 04:03:29;;;;;;;;;6.75;6.25;;;;;21.91;47.33;101695.50;4865483;29;45351;-54
2022/08/09 04:05:54;;;;;;;;;5.75;5.75;;;;;21.89;47.65;101692.09;4865699;29;45409;-52
2022/08/09 04:08:19;;;;;;;;;5.00;5.00;;;;;21.97;47.27;101699.16;4849760;29;46739;-53
2022/08/09 04:10:45;;;;;;;;;5.75;5.75;;;;;21.83;47.80;101687.63;4882053;29;45403;-57
2022/08/09 04:13:11;;;;;;;;;8.00;7.00;;;;;21.75;47.95;101699.25;4865192;29;45386;-53
2022/08/09 04:15:38;;;;;;;;;7.20;6.00;;;;;21.68;48.25;101699.44;4882478;29;45228;-55
2022/08/09 04:18:04;;;;;;;;;6.60;6.00;;;;;21.75;48.33;101696.44;4881626;29;45445;-57
2022/08/09 04:20:30;;;;;;;;;6.60;5.40;;;;;21.74;47.88;101697.56;4864936;29;45464;-57
2022/08/09 04:22:55;;;;;;;;;5.00;5.00;;;;;21.65;47.74;101688.78;4882091;29;45300;-56
2022/08/09 04:25:21;;;;;;;;;4.75;4.50;;;;;21.65;48.05;101688.78;4865120;29;45565;-53
2022/08/09 04:27:46;;;;;;;;;5.00;5.00;;;;;21.75;47.88;101714.06;4881644;29;45843;-54
2022/08/09 04:30:14;;;;;;;;;7.00;7.00;;;;;21.54;48.42;101693.44;4881556;29;45394;-57
2022/08/09 04:32:40;;;;;;;;;6.20;6.00;;;;;21.52;48.43;101706.81;4881812;29;45426;-57
2022/08/09 04:35:06;;;;;;;;;6.00;6.00;;;;;21.53;48.83;101712.16;4881780;29;45391;-55
2022/08/09 04:37:32;;;;;;;;;10.00;7.00;;;;;21.53;48.63;101723.31;4881399;29;46254;-55
2022/08/09 04:39:57;;;;;;;;;7.00;6.50;;;;;21.38;48.70;101706.38;4864874;29;45802;-59
2022/08/09 04:42:28;;;;;;;;;8.25;6.75;;;;;21.44;48.46;101724.06;4864470;29;45392;-56
2022/08/09 04:44:54;;;;;;;;;9.00;7.40;;;;;21.37;49.06;101727.03;4882142;29;45364;-53
2022/08/09 04:47:20;;;;;;;;;4.40;4.40;;;;;21.38;49.02;101729.56;4864599;29;46598;-53
2022/08/09 04:49:45;;;;;;;;;7.25;6.00;;;;;21.35;49.13;101723.66;4881323;29;45344;-55
2022/08/09 04:52:11;;;;;;;;;5.00;5.00;;;;;21.43;48.83;101722.34;4881398;29;45294;-56
2022/08/09 04:54:37;;;;;;;;;6.20;6.20;;;;;21.52;48.60;101724.41;4864874;29;45289;-58
2022/08/09 04:57:03;;;;;;;;;4.00;4.00;;;;;21.48;48.69;101714.88;4881280;29;46124;-57
2022/08/09 04:59:28;;;;;;;;;7.00;7.00;;;;;21.52;48.58;101715.19;4881425;29;45835;-57
2022/08/09 05:01:53;;;;;;;;;7.50;6.50;;;;;21.33;48.71;101709.97;4881628;29;45413;-57
2022/08/09 05:04:19;;;;;;;;;6.00;6.00;;;;;21.53;48.50;101720.53;4881590;29;45498;-57
2022/08/09 05:06:44;;;;;;;;;6.50;6.50;;;;;21.67;48.19;101731.28;4863981;29;46493;-55
2022/08/09 05:09:10;;;;;;;;;7.00;5.00;;;;;21.72;48.19;101731.34;4880831;29;45402;-53
2022/08/09 05:11:35;;;;;;;;;7.00;5.00;;;;;21.72;48.02;101728.56;4881441;29;45426;-56
2022/08/09 05:14:02;;;;;;;;;6.25;5.00;;;;;21.63;48.49;101727.31;4881224;29;45351;-53
2022/08/09 05:16:27;;;;;;;;;7.00;7.00;;;;;21.48;48.53;101709.28;4880896;29;45709;-57
2022/08/09 05:18:53;;;;;;;;;6.25;4.50;;;;;21.52;48.40;101724.41;4880886;29;45891;-56
2022/08/09 05:21:19;;;;;;;;;4.40;4.40;;;;;21.43;48.32;101706.44;4864325;29;45457;-58
2022/08/09 05:23:44;;;;;;;;;3.75;3.75;;;;;21.23;48.58;101668.81;4863933;29;45462;-57
2022/08/09 05:26:10;;;;;;;;;8.00;8.00;;;;;21.46;48.94;101733.00;4880930;29;46218;-53
2022/08/09 05:28:35;;;;;;;;;5.00;5.00;;;;;21.46;48.86;101731.03;4880748;29;45371;-56
2022/08/09 05:31:01;;;;;;;;;8.00;7.00;;;;;21.47;48.72;101734.69;4881025;29;45263;-56
2022/08/09 05:33:26;;;;;;;;;7.50;5.75;;;;;21.56;48.67;101749.03;4880708;29;45297;-57
2022/08/09 05:35:52;;;;;;;;;5.50;5.25;;;;;21.50;48.93;101746.19;4880819;29;46064;-53
2022/08/09 05:38:18;;;;;;;;;7.25;7.25;;;;;21.42;48.74;101752.22;4864009;29;45417;-57
2022/08/09 05:40:43;;;;;;;;;5.75;5.75;;;;;21.31;49.16;101748.47;4880783;29;45637;-58
2022/08/09 05:43:09;;;;;;;;;7.50;7.00;;;;;21.29;49.08;101735.88;4864235;29;45464;-54
2022/08/09 05:45:35;;;;;;;;;8.75;7.00;;;;;21.36;48.98;101750.47;4880619;29;46940;-52
2022/08/09 05:48:00;;;;;;;;;8.80;7.60;;;;;21.20;48.95;101716.81;4863946;29;45473;-55
2022/08/09 05:50:27;;;;;;;;;6.00;6.00;;;;;21.33;48.78;101732.28;4864047;29;45387;-56
2022/08/09 05:52:52;;;;;;;;;6.00;6.00;;;;;21.37;48.94;101749.38;4863988;29;45487;-54
2022/08/09 05:55:18;;;;;;;;;7.00;7.00;;;;;21.27;49.30;101744.50;4863814;29;46632;-58
2022/08/09 05:57:44;;;;;;;;;5.25;5.25;;;;;21.29;48.70;101744.25;4873116;29;45902;-55
2022/08/09 06:00:09;;;;;;;;;7.50;7.00;;;;;21.45;48.84;101754.47;4859046;29;45761;-55
2022/08/09 06:02:35;;;;;;;;;6.75;6.75;;;;;21.47;48.97;101754.22;4880835;29;45568;-55
2022/08/09 06:05:01;;;;;;;;;6.00;6.00;;;;;21.54;48.62;101749.28;4880331;29;45502;-54
2022/08/09 06:07:28;;;;;;;;;5.00;4.75;;;;;21.60;48.65;101753.00;4879542;29;45317;-56
2022/08/09 06:09:53;;;;;;;;;6.00;5.60;;;;;21.44;48.71;101740.81;4862982;29;46075;-56
2022/08/09 06:12:19;;;;;;;;;6.25;6.25;;;;;21.52;48.63;101748.72;4880673;29;45786;-54
2022/08/09 06:14:44;;;;;;;;;7.00;7.00;;;;;21.35;48.92;101740.41;4879982;29;46066;-56
2022/08/09 06:17:10;;;;;;;;;7.25;6.25;;;;;21.50;48.76;101768.50;4880307;29;45364;-53
2022/08/09 06:19:36;;;;;;;;;6.80;6.80;;;;;21.28;48.97;101739.78;4880057;29;45394;-54
2022/08/09 06:22:01;;;;;;;;;8.25;6.50;;;;;21.44;49.06;101766.75;4863479;29;45408;-55
2022/08/09 06:24:27;;;;;;;;;7.00;7.00;;;;;21.45;49.10;101768.44;4879847;29;45701;-54
2022/08/09 06:26:52;;;;;;;;;6.75;5.25;;;;;21.43;48.73;101765.09;4879931;29;45520;-51
2022/08/09 06:29:18;;;;;;;;;8.00;7.50;;;;;21.29;49.12;101750.66;4880278;29;45854;-54
2022/08/09 06:31:43;;;;;;;;;8.00;7.00;;;;;21.42;49.01;101768.97;4880515;29;45521;-56
2022/08/09 06:34:09;;;;;;;;;9.75;6.25;;;;;21.46;49.26;101780.47;4879620;29;45911;-53
2022/08/09 06:36:34;;;;;;;;;6.50;6.50;;;;;21.41;48.85;101778.47;4880423;29;45291;-55
2022/08/09 06:39:00;;;;;;;;;6.50;5.00;;;;;21.25;49.01;101753.13;4880122;29;45284;-55
2022/08/09 06:41:25;;;;;;;;;7.75;7.25;;;;;21.46;49.04;101784.09;4879987;29;45350;-54
2022/08/09 06:43:51;;;;;;;;;5.75;5.75;;;;;21.52;48.96;101785.84;4879895;29;45925;-52
2022/08/09 06:46:16;;;;;;;;;5.25;5.25;;;;;21.53;48.94;101789.50;4879634;29;45893;-52
2022/08/09 06:48:42;;;;;;;;;6.25;6.25;;;;;21.57;48.88;101784.22;4880021;29;45823;-51
2022/08/09 06:51:09;;;;;;;;;6.25;5.00;;;;;21.56;48.70;101776.97;4863166;29;45322;-54
2022/08/09 06:53:35;;;;;;;;;7.00;7.00;;;;;21.60;48.74;101786.50;4862917;29;46918;-57
2022/08/09 06:56:01;;;;;;;;;7.50;6.75;;;;;21.61;48.84;101788.19;4879718;29;45350;-53
2022/08/09 06:58:28;;;;;;;;;8.00;6.60;;;;;21.61;48.39;101786.22;4862833;29;45572;-55
2022/08/09 07:00:53;;;;;;;;;6.80;6.80;;;;;21.59;48.77;101782.88;4863413;29;45686;-56
2022/08/09 07:03:19;;;;;;;;;9.25;7.00;;;;;21.59;48.82;101790.38;4862770;29;46688;-54
2022/08/09 07:05:44;;;;;;;;;7.00;7.00;;;;;21.52;48.51;101785.00;4868040;29;45295;-53
2022/08/09 07:08:10;;;;;;;;;7.50;7.25;;;;;21.62;48.69;101790.72;4876992;29;45823;-56
2022/08/09 07:10:35;;;;;;;;;7.75;7.75;;;;;21.69;48.57;101795.25;4879841;29;46027;-58
2022/08/09 07:13:01;;;;;;;;;7.00;7.00;;;;;21.60;48.21;101767.78;4879656;29;45410;-60
2022/08/09 07:15:26;;;;;;;;;9.50;8.25;;;;;21.82;48.13;101794.03;4879348;29;45430;-56
2022/08/09 07:17:52;;;;;;;;;8.00;8.00;;;;;21.91;48.15;101803.63;4847332;29;45399;-54
2022/08/09 07:20:17;;;;;;;;;10.50;8.00;;;;;21.83;47.82;101778.97;4882546;29;45359;-54
2022/08/09 07:22:43;;;;;;;;;6.25;6.00;;;;;21.90;47.92;101780.44;4882120;29;46842;-60
2022/08/09 07:25:09;;;;;;;;;8.60;6.60;;;;;21.98;47.88;101800.63;4865516;29;45471;-61
2022/08/09 07:27:35;;;;;;;;;10.25;8.75;;;;;21.99;47.49;101794.75;4866104;29;45438;-60
2022/08/09 07:30:01;;;;;;;;;7.25;6.00;;;;;21.90;47.98;101800.00;4866043;29;45361;-60
2022/08/09 07:32:27;;;;;;;;;5.60;5.60;;;;;21.90;48.16;101796.34;4881813;29;46678;-57
2022/08/09 07:34:52;;;;;;;;;7.50;7.00;;;;;21.79;48.21;101785.06;4882438;29;45376;-57
2022/08/09 07:37:18;;;;;;;;;8.50;7.00;;;;;21.79;47.76;101768.28;4882727;29;45408;-56
2022/08/09 07:39:43;;;;;;;;;7.75;6.75;;;;;21.86;47.71;101773.69;4882652;29;45542;-55
2022/08/09 07:42:08;;;;;;;;;9.25;9.25;;;;;22.03;47.57;101801.53;4882417;29;46434;-57
2022/08/09 07:44:34;;;;;;;;;12.25;9.50;;;;;22.13;47.50;101800.78;4882048;29;45350;-55
2022/08/09 07:46:59;;;;;;;;;11.00;10.00;;;;;22.23;47.28;101797.25;4882491;29;45436;-59
2022/08/09 07:49:25;;;;;;;;;8.50;7.00;;;;;22.23;47.12;101788.00;4882125;29;45324;-57
2022/08/09 07:51:50;;;;;;;;;7.50;7.50;;;;;22.18;47.14;101774.81;4882210;29;46376;-56
2022/08/09 07:54:16;;;;;;;;;8.00;6.25;;;;;22.37;46.88;101794.00;4865355;29;45406;-54
2022/08/09 07:56:41;;;;;;;;;5.50;5.50;;;;;22.37;46.92;101789.25;4882357;29;45343;-56
2022/08/09 07:59:07;;;;;;;;;8.25;7.25;;;;;22.38;46.79;101795.69;4882477;29;45639;-55
2022/08/09 08:01:33;;;;;;;;;10.00;10.00;;;;;22.42;46.49;101791.25;4865242;29;46263;-57
2022/08/09 08:03:59;;;;;;;;;8.60;7.00;;;;;22.36;46.55;101776.38;4881991;29;45383;-55
2022/08/09 08:06:24;;;;;;;;;7.25;7.25;;;;;22.52;46.08;101798.91;4881960;29;45332;-52
2022/08/09 08:08:50;;;;;;;;;10.00;9.00;;;;;22.50;46.53;101799.13;4843850;28;45798;-54
2022/08/09 08:11:16;;;;;;;;;6.75;6.75;;;;;22.60;46.40;101804.00;4882034;29;46433;-53
2022/08/09 08:13:41;;;;;;;;;6.00;6.00;;;;;22.59;46.40;101789.19;4881416;29;45686;-53
2022/08/09 08:16:08;;;;;;;;;10.50;9.00;;;;;22.65;45.96;101794.78;4882584;29;45326;-53
2022/08/09 08:18:34;;;;;;;;;8.00;8.00;;;;;22.74;45.93;101798.78;4882222;29;45415;-51
2022/08/09 08:20:59;;;;;;;;;7.50;7.50;;;;;22.86;45.74;101802.25;4867724;29;46174;-52
2022/08/09 08:23:25;;;;;;;;;6.00;6.00;;;;;22.91;45.81;101803.38;4879358;29;45358;-52
2022/08/09 08:25:51;;;;;;;;;6.00;6.00;;;;;22.86;45.63;101774.25;4881408;29;45382;-51
2022/08/09 08:28:17;;;;;;;;;7.60;6.80;;;;;22.98;45.25;101775.97;4882096;29;45561;-51
2022/08/09 08:30:43;;;;;;;;;8.50;7.25;;;;;23.20;44.96;101795.41;4863477;29;45829;-56
2022/08/09 08:33:08;;;;;;;;;7.50;7.25;;;;;23.25;44.84;101808.59;4863058;29;45249;-53
2022/08/09 08:35:34;;;;;;;;;7.75;6.50;;;;;23.14;44.73;101788.97;4864623;29;45207;-53
2022/08/09 08:38:00;;;;;;;;;8.60;8.40;;;;;23.40;44.37;101814.31;4881820;29;45435;-51
2022/08/09 08:40:25;;;;;;;;;7.25;7.25;;;;;23.41;43.89;101809.53;4864315;29;45580;-52
2022/08/09 08:42:52;;;;;;;;;6.50;5.50;;;;;23.42;44.17;101803.69;4863680;29;45767;-55
2022/08/09 08:45:20;;;;;;;;;10.40;8.60;;;;;23.44;43.91;101797.81;4880242;29;45558;-54
2022/08/09 08:47:46;;;;;;;;;8.60;7.40;;;;;23.52;43.74;101797.28;4845855;29;45527;-56
2022/08/09 08:50:15;;;;;;;;;7.00;7.00;;;;;23.62;44.01;101799.25;4864547;29;45898;-55
2022/08/09 08:52:41;;;;;;;;;7.00;7.00;;;;;23.66;43.31;101793.94;4881519;29;45402;-54
2022/08/09 08:55:06;;;;;;;;;8.25;8.25;;;;;23.55;43.31;101765.88;4864069;29;45435;-53
2022/08/09 08:57:32;;;;;;;;;11.20;8.20;;;;;23.78;43.68;101797.34;4864980;29;45325;-54
2022/08/09 08:59:57;;;;;;;;;10.75;6.50;;;;;23.79;42.92;101789.75;4863254;29;45635;-53
2022/08/09 09:02:26;;;;;;;;;6.25;6.25;;;;;23.81;43.43;101784.75;4864182;29;45345;-55
2022/08/09 09:04:53;;;;;;;;;6.40;6.40;;;;;23.92;42.88;101794.88;4881342;29;45442;-51
2022/08/09 09:07:18;;;;;;;;;6.60;5.60;;;;;24.00;43.03;101795.44;4881695;29;45340;-49
2022/08/09 09:09:48;;;;;;;;;10.25;7.50;;;;;24.07;42.53;101796.88;4851487;29;46222;-53
2022/08/09 09:12:18;;;;;;;;;5.00;5.00;;;;;24.12;42.26;101790.41;4873965;29;45922;-52
2022/08/09 09:14:44;;;;;;;;;9.20;8.40;;;;;24.15;42.35;101801.09;4863977;29;45259;-53
2022/08/09 09:17:10;;;;;;;;;7.00;7.00;;;;;24.22;42.14;101789.56;4864504;29;45430;-49
2022/08/09 09:19:35;;;;;;;;;6.00;6.00;;;;;24.25;41.47;101783.44;4864077;29;46592;-51
2022/08/09 09:22:03;;;;;;;;;8.00;6.50;;;;;24.31;41.40;101784.25;4871886;28;45631;-54
2022/08/09 09:24:34;;;;;;;;;10.00;8.20;;;;;24.44;41.88;101788.47;4879910;29;45841;-54
2022/08/09 09:27:00;;;;;;;;;9.80;7.40;;;;;24.47;41.11;101794.38;4881143;29;45279;-54
2022/08/09 09:29:32;;;;;;;;;11.60;10.20;;;;;24.56;41.18;101783.44;4848309;29;46020;-57
2022/08/09 09:31:58;;;;;;;;;9.20;8.20;;;;;24.61;41.18;101791.00;4880685;29;45442;-51
2022/08/09 09:34:23;;;;;;;;;8.25;8.25;;;;;24.67;40.53;101787.06;4880490;29;45361;-52
2022/08/09 09:36:49;;;;;;;;;6.25;6.25;;;;;24.73;40.22;101785.94;4879971;29;45366;-53
2022/08/09 09:39:17;;;;;;;;;9.25;7.00;;;;;24.77;40.67;101783.38;4863525;29;46355;-54
2022/08/09 09:41:42;;;;;;;;;8.00;7.80;;;;;24.82;40.36;101789.03;4880358;29;45335;-54
2022/08/09 09:44:08;;;;;;;;;9.00;8.00;;;;;24.87;40.25;101785.38;4880170;29;45519;-55
2022/08/09 09:46:38;;;;;;;;;11.00;8.00;;;;;24.88;40.26;101775.81;4864171;29;45305;-54
2022/08/09 09:49:05;;;;;;;;;7.00;7.00;;;;;24.96;40.25;101780.84;4879142;29;46343;-53
2022/08/09 09:51:34;;;;;;;;;10.80;9.00;;;;;25.00;39.55;101769.88;4880492;29;45523;-53
2022/08/09 09:54:07;;;;;;;;;8.00;6.20;;;;;25.03;39.52;101769.31;4880822;29;45398;-53
2022/08/09 09:56:34;;;;;;;;;9.40;7.60;;;;;25.12;39.18;101776.00;4864104;29;45456;-52
2022/08/09 09:59:00;;;;;;;;;7.60;7.60;;;;;25.16;38.97;101776.28;4863482;29;46581;-55
2022/08/09 10:01:27;;;;;;;;;7.00;7.00;;;;;25.19;38.83;101772.91;4878979;29;45477;-57
2022/08/09 10:03:54;;;;;;;;;7.40;6.40;;;;;25.28;39.43;101770.31;4864080;29;45350;-55
2022/08/09 10:06:19;;;;;;;;;8.20;7.80;;;;;25.37;38.69;101767.75;4880400;29;45526;-53
2022/08/09 10:08:47;;;;;;;;;6.75;6.75;;;;;25.41;38.69;101771.69;4879934;29;45462;-52
2022/08/09 10:11:26;;;;;;;;;9.80;7.00;;;;;25.39;37.98;101743.88;4880093;29;45501;-52
2022/08/09 10:13:54;;;;;;;;;4.20;4.20;;;;;25.55;37.61;101749.44;4869340;29;45886;-51
2022/08/09 10:16:31;;;;;;;;;7.00;7.00;;;;;25.62;37.87;101758.41;4859207;29;45482;-52
2022/08/09 10:19:01;;;;;;;;;6.00;5.00;;;;;25.67;37.93;101751.91;4846863;29;47643;-52
2022/08/09 10:21:27;;;;;;;;;7.00;7.00;;;;;25.81;37.35;101757.69;4854767;29;45332;-51
2022/08/09 10:23:53;;;;;;;;;5.75;5.75;;;;;25.87;37.21;101748.09;4847802;29;45631;-52
2022/08/09 10:26:22;;;;;;;;;7.00;7.00;;;;;25.88;37.05;101751.78;4879268;29;45339;-55
2022/08/09 10:28:47;;;;;;;;;8.00;7.20;;;;;25.87;37.40;101731.22;4879778;29;45856;-55
2022/08/09 10:31:13;;;;;;;;;7.50;7.50;;;;;26.04;37.19;101758.94;4863156;29;45417;-55
2022/08/09 10:33:39;;;;;;;;;8.50;8.50;;;;;26.07;37.03;101755.56;4863335;29;45538;-55
2022/08/09 10:36:05;;;;;;;;;8.25;6.00;;;;;26.11;37.05;101744.56;4880165;29;45610;-52
2022/08/09 10:38:31;;;;;;;;;7.00;5.60;;;;;26.21;36.53;101752.06;4878391;29;46420;-54
2022/08/09 10:40:57;;;;;;;;;8.50;8.00;;;;;26.26;36.44;101743.63;4879976;29;45438;-55
2022/08/09 10:43:23;;;;;;;;;8.00;8.00;;;;;26.35;36.17;101750.28;4879724;29;45421;-53
2022/08/09 10:45:49;;;;;;;;;6.40;6.40;;;;;26.40;36.00;101743.75;4863566;29;45498;-54
2022/08/09 10:48:50;;;;;;;;;11.50;10.00;;;;;26.47;35.85;101747.06;4879864;29;46680;-51
2022/08/09 10:51:31;;;;;;;;;9.40;8.00;;;;;26.51;35.97;101741.69;4837929;29;45348;-53
2022/08/09 10:54:01;;;;;;;;;7.40;7.40;;;;;26.54;35.90;101738.28;4830895;29;45491;-51
2022/08/09 10:56:28;;;;;;;;;8.60;7.00;;;;;26.51;35.32;101728.47;4864689;29;45370;-55
2022/08/09 10:58:56;;;;;;;;;7.40;7.00;;;;;26.62;35.46;101729.19;4863917;29;45489;-52
2022/08/09 11:01:31;;;;;;;;;7.00;7.00;;;;;26.62;35.07;101714.28;4865576;29;45455;-52
2022/08/09 11:04:19;;;;;;;;;6.60;6.60;;;;;26.60;34.72;101700.50;4882985;29;45431;-52
2022/08/09 11:06:45;;;;;;;;;8.00;8.00;;;;;26.89;34.59;101735.38;4882852;29;45326;-56
2022/08/09 11:09:12;;;;;;;;;4.50;4.50;;;;;26.82;35.39;101707.56;4865571;29;48158;-54
2022/08/09 11:11:56;;;;;;;;;8.60;8.60;;;;;27.05;35.00;101727.63;4866321;29;45218;-58
2022/08/09 11:14:34;;;;;;;;;10.40;9.40;;;;;27.03;35.42;101719.47;4881633;29;45348;-54
2022/08/09 11:17:00;;;;;;;;;8.20;5.60;;;;;27.18;35.35;101729.72;4866276;29;45340;-55
2022/08/09 11:20:07;;;;;;;;;8.20;6.80;;;;;27.30;35.11;101740.53;4850581;29;45663;-55
2022/08/09 11:22:55;;;;;;;;;6.00;6.00;;;;;27.42;34.36;101731.63;4878310;29;45472;-56
2022/08/09 11:25:26;;;;;;;;;6.00;5.60;;;;;27.49;33.84;101719.13;4870167;29;45378;-52